Detailed System and Site Information

System Data Health
Measure Timestamp Ago Health
Web Server Live 01:36:23, 25th April 2014 0 s health
Last live-data upload from local system (nw3) 01:36:23, 25th April 2014 0 s health
Last upload of secondary data 01:00:23, 25th April 2014 36 mins health
Latest Webcam upload 01:36:07, 25th April 2014 16 s health
Last upload of 24hr data log 01:34:08, 25th April 2014 2 mins health
Last full data process 01:35:02, 25th April 2014 81 s health
Last data downtime (>15 mins) 17:01:02, 2nd April 2014 22 days
Local System and Site Information
Measure Value
WD Version & Build # 10.37R - 40
WD Start Time 19:31 31/03/14
WD Data Count 724728
WD Memory Use 89,508 K
--- ---
Windows Uptime 24 Days 5 Hours 30 Minutes 50 Seconds
Free System Memory 2435 MB (Max: 4GB)
--- ---
Station Altitude 57 m (187 ft)
Station Latitude 51.556
Station Longitude -0.154
Machine Room Conditions
Measure Value
Temperature 19.0 °C
Temperature Trend -0.3 °C /hr
Relative Humidity 48%
Dew Point 7.7 °C
--- ---
Tmin Today 19.0 °C at 00:55
Tmax Today 19.3 °C at 00:00
Hmin Today 48% at 00:00
Hmax Today 48% at 00:00
Tmin Yesterday 18.8 °C at 19:59
Tmax Yesterday 20.2 °C at 11:54

Site owner and administrator: Ben Lee-Rodgers (2010 - present)

Last 10hrs Temp/Hum for Secondary Sensor and Indoors

Extra Sensors/Indoor

Other

Raw METAR from EGLL (Heathrow)

EGLL 250020Z AUTO VRB03KT 9999 NCD 11/08 Q1015
Decode Instructions
Source

WD Screenshot

not available